sensor_id;sensor_type;location;lat;lon;timestamp;pressure;altitude;pressure_sealevel;temperature;humidity
37694;BME280;23531;50.122;8.644;2023-02-16T00:00:17;101711.16;;;4.12;nan
37694;BME280;23531;50.122;8.644;2023-02-16T00:02:19;101703.88;;;4.05;nan
37694;BME280;23531;50.122;8.644;2023-02-16T00:04:21;101704.09;;;3.82;nan
37694;BME280;23531;50.122;8.644;2023-02-16T00:06:22;101701.81;;;3.78;nan
37694;BME280;23531;50.122;8.644;2023-02-16T00:08:24;101701.97;;;3.86;nan
37694;BME280;23531;50.122;8.644;2023-02-16T00:10:29;101694.09;;;4.24;nan
37694;BME280;23531;50.122;8.644;2023-02-16T00:12:31;101689.63;;;4.44;nan
37694;BME280;23531;50.122;8.644;2023-02-16T00:14:55;101696.63;;;4.55;nan
37694;BME280;23531;50.122;8.644;2023-02-16T00:16:57;101693.41;;;4.51;nan
37694;BME280;23531;50.122;8.644;2023-02-16T00:18:58;101690.19;;;4.57;nan
37694;BME280;23531;50.122;8.644;2023-02-16T00:21:00;101687.94;;;4.43;nan
37694;BME280;23531;50.122;8.644;2023-02-16T00:23:01;101685.66;;;4.10;nan
37694;BME280;23531;50.122;8.644;2023-02-16T00:25:02;101702.34;;;4.21;nan
37694;BME280;23531;50.122;8.644;2023-02-16T00:27:08;101692.97;;;4.46;nan
37694;BME280;23531;50.122;8.644;2023-02-16T00:29:14;101703.06;;;4.43;nan
37694;BME280;23531;50.122;8.644;2023-02-16T00:31:17;101703.63;;;4.46;nan
37694;BME280;23531;50.122;8.644;2023-02-16T00:33:20;101694.53;;;4.58;nan
37694;BME280;23531;50.122;8.644;2023-02-16T00:35:21;101694.13;;;4.72;nan
37694;BME280;23531;50.122;8.644;2023-02-16T00:37:23;101698.44;;;4.54;nan
37694;BME280;23531;50.122;8.644;2023-02-16T00:39:24;101698.03;;;4.49;nan
37694;BME280;23531;50.122;8.644;2023-02-16T00:41:26;101693.81;;;4.37;nan
37694;BME280;23531;50.122;8.644;2023-02-16T00:43:45;101692.41;;;4.52;nan
37694;BME280;23531;50.122;8.644;2023-02-16T00:45:47;101687.66;;;4.36;nan
37694;BME280;23531;50.122;8.644;2023-02-16T00:47:49;101684.84;;;4.38;nan
37694;BME280;23531;50.122;8.644;2023-02-16T00:49:51;101685.56;;;4.59;nan
37694;BME280;23531;50.122;8.644;2023-02-16T00:51:53;101683.75;;;4.50;nan
37694;BME280;23531;50.122;8.644;2023-02-16T00:53:54;101686.09;;;4.53;nan
37694;BME280;23531;50.122;8.644;2023-02-16T00:55:56;101677.84;;;4.56;nan
37694;BME280;23531;50.122;8.644;2023-02-16T00:57:59;101672.50;;;4.66;nan
37694;BME280;23531;50.122;8.644;2023-02-16T01:00:10;101673.22;;;4.68;nan
37694;BME280;23531;50.122;8.644;2023-02-16T01:02:13;101673.91;;;4.70;nan
37694;BME280;23531;50.122;8.644;2023-02-16T01:04:17;101679.78;;;4.64;nan
37694;BME280;23531;50.122;8.644;2023-02-16T01:06:19;101670.00;;;4.45;nan
37694;BME280;23531;50.122;8.644;2023-02-16T01:08:38;101679.81;;;4.45;nan
37694;BME280;23531;50.122;8.644;2023-02-16T01:10:56;101673.50;;;4.46;nan
37694;BME280;23531;50.122;8.644;2023-02-16T01:13:10;101675.03;;;4.58;nan
37694;BME280;23531;50.122;8.644;2023-02-16T01:15:13;101681.75;;;4.52;nan
37694;BME280;23531;50.122;8.644;2023-02-16T01:17:15;101687.94;;;4.53;nan
37694;BME280;23531;50.122;8.644;2023-02-16T01:19:16;101682.59;;;4.33;nan
37694;BME280;23531;50.122;8.644;2023-02-16T01:21:17;101678.81;;;4.46;nan
37694;BME280;23531;50.122;8.644;2023-02-16T01:23:18;101681.09;;;4.50;nan
37694;BME280;23531;50.122;8.644;2023-02-16T01:25:20;101683.75;;;4.50;nan
37694;BME280;23531;50.122;8.644;2023-02-16T01:27:21;101672.25;;;4.50;nan
37694;BME280;23531;50.122;8.644;2023-02-16T01:29:22;101667.47;;;4.53;nan
37694;BME280;23531;50.122;8.644;2023-02-16T01:31:25;101672.78;;;4.53;nan
37694;BME280;23531;50.122;8.644;2023-02-16T01:33:26;101667.59;;;4.32;nan
37694;BME280;23531;50.122;8.644;2023-02-16T01:35:29;101667.88;;;4.29;nan
37694;BME280;23531;50.122;8.644;2023-02-16T01:37:32;101665.50;;;4.55;nan
37694;BME280;23531;50.122;8.644;2023-02-16T01:39:33;101657.78;;;4.52;nan
37694;BME280;23531;50.122;8.644;2023-02-16T01:41:39;101657.63;;;4.63;nan
37694;BME280;23531;50.122;8.644;2023-02-16T01:43:45;101664.41;;;4.48;nan
37694;BME280;23531;50.122;8.644;2023-02-16T01:45:49;101659.47;;;4.53;nan
37694;BME280;23531;50.122;8.644;2023-02-16T01:47:53;101660.88;;;4.57;nan
37694;BME280;23531;50.122;8.644;2023-02-16T01:49:55;101654.28;;;4.52;nan
37694;BME280;23531;50.122;8.644;2023-02-16T01:51:59;101649.66;;;4.34;nan
37694;BME280;23531;50.122;8.644;2023-02-16T01:54:05;101650.63;;;4.05;nan
37694;BME280;23531;50.122;8.644;2023-02-16T01:56:09;101651.34;;;4.26;nan
37694;BME280;23531;50.122;8.644;2023-02-16T01:58:16;101649.53;;;4.36;nan
37694;BME280;23531;50.122;8.644;2023-02-16T02:00:23;101647.84;;;4.35;nan
37694;BME280;23531;50.122;8.644;2023-02-16T02:02:27;101648.25;;;4.21;nan
37694;BME280;23531;50.122;8.644;2023-02-16T02:04:37;101646.16;;;4.24;nan
37694;BME280;23531;50.122;8.644;2023-02-16T02:06:57;101649.22;;;4.29;nan
37694;BME280;23531;50.122;8.644;2023-02-16T02:08:59;101651.63;;;4.32;nan
37694;BME280;23531;50.122;8.644;2023-02-16T02:11:04;101640.13;;;4.42;nan
37694;BME280;23531;50.122;8.644;2023-02-16T02:13:09;101643.78;;;4.21;nan
37694;BME280;23531;50.122;8.644;2023-02-16T02:15:11;101646.09;;;3.95;nan
37694;BME280;23531;50.122;8.644;2023-02-16T02:17:15;101646.78;;;3.78;nan
37694;BME280;23531;50.122;8.644;2023-02-16T02:19:18;101644.00;;;3.89;nan
37694;BME280;23531;50.122;8.644;2023-02-16T02:21:27;101648.50;;;3.98;nan
37694;BME280;23531;50.122;8.644;2023-02-16T02:23:56;101649.09;;;4.12;nan
37694;BME280;23531;50.122;8.644;2023-02-16T02:26:08;101651.22;;;4.27;nan
37694;BME280;23531;50.122;8.644;2023-02-16T02:28:17;101639.44;;;4.30;nan
37694;BME280;23531;50.122;8.644;2023-02-16T02:30:32;101638.88;;;4.26;nan
37694;BME280;23531;50.122;8.644;2023-02-16T02:32:42;101638.88;;;4.26;nan
37694;BME280;23531;50.122;8.644;2023-02-16T02:34:53;101633.69;;;4.25;nan
37694;BME280;23531;50.122;8.644;2023-02-16T02:37:02;101627.53;;;4.34;nan
37694;BME280;23531;50.122;8.644;2023-02-16T02:39:12;101623.03;;;4.06;nan
37694;BME280;23531;50.122;8.644;2023-02-16T02:41:19;101622.59;;;4.00;nan
37694;BME280;23531;50.122;8.644;2023-02-16T02:43:47;101612.78;;;3.91;nan
37694;BME280;23531;50.122;8.644;2023-02-16T02:45:52;101614.16;;;3.86;nan
37694;BME280;23531;50.122;8.644;2023-02-16T02:47:54;101608.31;;;4.01;nan
37694;BME280;23531;50.122;8.644;2023-02-16T02:49:55;101609.88;;;3.94;nan
37694;BME280;23531;50.122;8.644;2023-02-16T02:51:57;101613.06;;;4.08;nan
37694;BME280;23531;50.122;8.644;2023-02-16T02:53:59;101615.34;;;4.22;nan
37694;BME280;23531;50.122;8.644;2023-02-16T02:56:19;101625.00;;;4.23;nan
37694;BME280;23531;50.122;8.644;2023-02-16T02:58:38;101618.44;;;4.17;nan
37694;BME280;23531;50.122;8.644;2023-02-16T03:00:59;101618.69;;;4.05;nan
37694;BME280;23531;50.122;8.644;2023-02-16T03:03:01;101624.88;;;4.15;nan
37694;BME280;23531;50.122;8.644;2023-02-16T03:05:05;101628.78;;;4.20;nan
37694;BME280;23531;50.122;8.644;2023-02-16T03:07:08;101622.88;;;4.07;nan
37694;BME280;23531;50.122;8.644;2023-02-16T03:09:10;101620.66;;;4.12;nan
37694;BME280;23531;50.122;8.644;2023-02-16T03:11:16;101623.88;;;4.25;nan
37694;BME280;23531;50.122;8.644;2023-02-16T03:13:37;101628.25;;;4.17;nan
37694;BME280;23531;50.122;8.644;2023-02-16T03:15:39;101624.03;;;4.33;nan
37694;BME280;23531;50.122;8.644;2023-02-16T03:17:43;101631.88;;;4.35;nan
37694;BME280;23531;50.122;8.644;2023-02-16T03:20:03;101621.94;;;4.37;nan
37694;BME280;23531;50.122;8.644;2023-02-16T03:22:24;101628.09;;;4.47;nan
37694;BME280;23531;50.122;8.644;2023-02-16T03:24:43;101634.53;;;4.35;nan
37694;BME280;23531;50.122;8.644;2023-02-16T03:27:03;101630.63;;;4.39;nan
37694;BME280;23531;50.122;8.644;2023-02-16T03:29:23;101636.06;;;4.18;nan
37694;BME280;23531;50.122;8.644;2023-02-16T03:31:27;101632.16;;;4.13;nan
37694;BME280;23531;50.122;8.644;2023-02-16T03:33:31;101628.06;;;4.18;nan
37694;BME280;23531;50.122;8.644;2023-02-16T03:35:32;101623.44;;;4.20;nan
37694;BME280;23531;50.122;8.644;2023-02-16T03:37:34;101632.00;;;4.24;nan
37694;BME280;23531;50.122;8.644;2023-02-16T03:39:35;101632.16;;;4.32;nan
37694;BME280;23531;50.122;8.644;2023-02-16T03:41:57;101621.50;;;4.22;nan
37694;BME280;23531;50.122;8.644;2023-02-16T03:43:58;101623.88;;;4.16;nan
37694;BME280;23531;50.122;8.644;2023-02-16T03:46:00;101615.59;;;4.09;nan
37694;BME280;23531;50.122;8.644;2023-02-16T03:48:01;101623.31;;;4.31;nan
37694;BME280;23531;50.122;8.644;2023-02-16T03:50:05;101628.81;;;4.40;nan
37694;BME280;23531;50.122;8.644;2023-02-16T03:52:06;101627.94;;;4.20;nan
37694;BME280;23531;50.122;8.644;2023-02-16T03:54:08;101632.16;;;4.13;nan
37694;BME280;23531;50.122;8.644;2023-02-16T03:56:09;101623.44;;;4.11;nan
37694;BME280;23531;50.122;8.644;2023-02-16T03:58:11;101621.22;;;4.06;nan
37694;BME280;23531;50.122;8.644;2023-02-16T04:00:13;101618.94;;;3.82;nan
37694;BME280;23531;50.122;8.644;2023-02-16T04:02:14;101612.66;;;4.03;nan
37694;BME280;23531;50.122;8.644;2023-02-16T04:04:15;101616.03;;;4.14;nan
37694;BME280;23531;50.122;8.644;2023-02-16T04:06:18;101621.63;;;4.30;nan
37694;BME280;23531;50.122;8.644;2023-02-16T04:08:19;101621.66;;;4.40;nan
37694;BME280;23531;50.122;8.644;2023-02-16T04:10:21;101623.75;;;4.46;nan
37694;BME280;23531;50.122;8.644;2023-02-16T04:12:22;101616.03;;;4.43;nan
37694;BME280;23531;50.122;8.644;2023-02-16T04:14:38;101623.75;;;4.27;nan
37694;BME280;23531;50.122;8.644;2023-02-16T04:16:39;101624.44;;;4.10;nan
37694;BME280;23531;50.122;8.644;2023-02-16T04:18:40;101628.25;;;4.26;nan
37694;BME280;23531;50.122;8.644;2023-02-16T04:20:41;101625.84;;;4.14;nan
37694;BME280;23531;50.122;8.644;2023-02-16T04:22:45;101619.09;;;4.10;nan
37694;BME280;23531;50.122;8.644;2023-02-16T04:24:46;101624.69;;;3.97;nan
37694;BME280;23531;50.122;8.644;2023-02-16T04:26:47;101617.28;;;4.00;nan
37694;BME280;23531;50.122;8.644;2023-02-16T04:28:49;101629.34;;;4.24;nan
37694;BME280;23531;50.122;8.644;2023-02-16T04:30:50;101620.25;;;4.26;nan
37694;BME280;23531;50.122;8.644;2023-02-16T04:32:51;101624.28;;;3.92;nan
37694;BME280;23531;50.122;8.644;2023-02-16T04:34:53;101625.63;;;3.77;nan
37694;BME280;23531;50.122;8.644;2023-02-16T04:36:54;101625.91;;;3.74;nan
37694;BME280;23531;50.122;8.644;2023-02-16T04:38:57;101621.97;;;3.58;nan
37694;BME280;23531;50.122;8.644;2023-02-16T04:40:58;101630.53;;;3.72;nan
37694;BME280;23531;50.122;8.644;2023-02-16T04:42:59;101626.09;;;4.01;nan
37694;BME280;23531;50.122;8.644;2023-02-16T04:45:00;101629.00;;;3.69;nan
37694;BME280;23531;50.122;8.644;2023-02-16T04:47:02;101633.41;;;3.49;nan
37694;BME280;23531;50.122;8.644;2023-02-16T04:49:03;101634.03;;;3.32;nan
37694;BME280;23531;50.122;8.644;2023-02-16T04:51:04;101628.22;;;3.48;nan
37694;BME280;23531;50.122;8.644;2023-02-16T04:53:06;101630.16;;;3.46;nan
37694;BME280;23531;50.122;8.644;2023-02-16T04:55:08;101625.00;;;3.44;nan
37694;BME280;23531;50.122;8.644;2023-02-16T04:57:10;101625.16;;;3.62;nan
37694;BME280;23531;50.122;8.644;2023-02-16T04:59:12;101621.41;;;3.64;nan
37694;BME280;23531;50.122;8.644;2023-02-16T05:01:17;101621.19;;;3.96;nan
37694;BME280;23531;50.122;8.644;2023-02-16T05:03:19;101623.56;;;3.99;nan
37694;BME280;23531;50.122;8.644;2023-02-16T05:05:20;101618.00;;;4.03;nan
37694;BME280;23531;50.122;8.644;2023-02-16T05:07:21;101621.72;;;3.71;nan
37694;BME280;23531;50.122;8.644;2023-02-16T05:09:23;101620.03;;;3.70;nan
37694;BME280;23531;50.122;8.644;2023-02-16T05:11:25;101623.53;;;3.71;nan
37694;BME280;23531;50.122;8.644;2023-02-16T05:13:44;101629.28;;;3.85;nan
37694;BME280;23531;50.122;8.644;2023-02-16T05:16:03;101624.81;;;3.86;nan
37694;BME280;23531;50.122;8.644;2023-02-16T05:18:04;101630.31;;;4.04;nan
37694;BME280;23531;50.122;8.644;2023-02-16T05:20:06;101622.50;;;3.62;nan
37694;BME280;23531;50.122;8.644;2023-02-16T05:22:08;101623.09;;;3.65;nan
37694;BME280;23531;50.122;8.644;2023-02-16T05:24:09;101629.88;;;3.98;nan
37694;BME280;23531;50.122;8.644;2023-02-16T05:26:11;101625.13;;;4.02;nan
37694;BME280;23531;50.122;8.644;2023-02-16T05:28:13;101621.28;;;3.66;nan
37694;BME280;23531;50.122;8.644;2023-02-16T05:30:14;101632.78;;;3.76;nan
37694;BME280;23531;50.122;8.644;2023-02-16T05:32:16;101634.38;;;3.48;nan
37694;BME280;23531;50.122;8.644;2023-02-16T05:34:17;101640.72;;;3.57;nan
37694;BME280;23531;50.122;8.644;2023-02-16T05:36:19;101640.09;;;3.44;nan
37694;BME280;23531;50.122;8.644;2023-02-16T05:38:21;101635.16;;;3.39;nan
37694;BME280;23531;50.122;8.644;2023-02-16T05:40:22;101640.09;;;3.44;nan
37694;BME280;23531;50.122;8.644;2023-02-16T05:42:23;101639.50;;;3.40;nan
37694;BME280;23531;50.122;8.644;2023-02-16T05:44:26;101647.97;;;3.55;nan
37694;BME280;23531;50.122;8.644;2023-02-16T05:46:28;101645.47;;;3.63;nan
37694;BME280;23531;50.122;8.644;2023-02-16T05:48:31;101650.41;;;3.77;nan
37694;BME280;23531;50.122;8.644;2023-02-16T05:50:32;101644.53;;;3.74;nan
37694;BME280;23531;50.122;8.644;2023-02-16T05:52:34;101648.59;;;3.78;nan
37694;BME280;23531;50.122;8.644;2023-02-16T05:54:35;101645.53;;;3.82;nan
37694;BME280;23531;50.122;8.644;2023-02-16T05:56:36;101645.25;;;3.85;nan
37694;BME280;23531;50.122;8.644;2023-02-16T05:58:37;101642.34;;;3.98;nan
37694;BME280;23531;50.122;8.644;2023-02-16T06:00:40;101649.81;;;4.14;nan
37694;BME280;23531;50.122;8.644;2023-02-16T06:02:41;101649.72;;;3.75;nan
37694;BME280;23531;50.122;8.644;2023-02-16T06:04:42;101649.38;;;3.49;nan
37694;BME280;23531;50.122;8.644;2023-02-16T06:06:44;101648.78;;;3.46;nan
37694;BME280;23531;50.122;8.644;2023-02-16T06:08:45;101642.06;;;3.51;nan
37694;BME280;23531;50.122;8.644;2023-02-16T06:10:47;101653.06;;;3.68;nan
37694;BME280;23531;50.122;8.644;2023-02-16T06:12:49;101649.69;;;3.65;nan
37694;BME280;23531;50.122;8.644;2023-02-16T06:14:50;101659.81;;;3.72;nan
37694;BME280;23531;50.122;8.644;2023-02-16T06:16:53;101649.56;;;3.77;nan
37694;BME280;23531;50.122;8.644;2023-02-16T06:18:56;101650.41;;;3.77;nan
37694;BME280;23531;50.122;8.644;2023-02-16T06:20:57;101651.28;;;3.87;nan
37694;BME280;23531;50.122;8.644;2023-02-16T06:22:58;101659.81;;;3.81;nan
37694;BME280;23531;50.122;8.644;2023-02-16T06:24:59;101658.56;;;3.85;nan
37694;BME280;23531;50.122;8.644;2023-02-16T06:27:01;101658.53;;;3.36;nan
37694;BME280;23531;50.122;8.644;2023-02-16T06:29:02;101662.22;;;3.44;nan
37694;BME280;23531;50.122;8.644;2023-02-16T06:31:04;101662.94;;;3.16;nan
37694;BME280;23531;50.122;8.644;2023-02-16T06:33:07;101670.41;;;3.32;nan
37694;BME280;23531;50.122;8.644;2023-02-16T06:35:09;101678.03;;;3.46;nan
37694;BME280;23531;50.122;8.644;2023-02-16T06:37:10;101672.72;;;3.46;nan
37694;BME280;23531;50.122;8.644;2023-02-16T06:39:11;101673.09;;;3.41;nan
37694;BME280;23531;50.122;8.644;2023-02-16T06:41:12;101681.38;;;3.78;nan
37694;BME280;23531;50.122;8.644;2023-02-16T06:43:30;101675.97;;;3.49;nan
37694;BME280;23531;50.122;8.644;2023-02-16T06:45:31;101683.56;;;3.33;nan
37694;BME280;23531;50.122;8.644;2023-02-16T06:47:32;101674.28;;;3.27;nan
37694;BME280;23531;50.122;8.644;2023-02-16T06:49:35;101673.19;;;3.60;nan
37694;BME280;23531;50.122;8.644;2023-02-16T06:51:36;101673.84;;;3.83;nan
37694;BME280;23531;50.122;8.644;2023-02-16T06:53:37;101676.09;;;3.97;nan
37694;BME280;23531;50.122;8.644;2023-02-16T06:55:38;101677.19;;;3.85;nan
37694;BME280;23531;50.122;8.644;2023-02-16T06:57:40;101686.41;;;3.72;nan
37694;BME280;23531;50.122;8.644;2023-02-16T06:59:41;101681.75;;;3.74;nan
37694;BME280;23531;50.122;8.644;2023-02-16T07:01:42;101685.66;;;4.10;nan
37694;BME280;23531;50.122;8.644;2023-02-16T07:03:43;101687.31;;;4.01;nan
37694;BME280;23531;50.122;8.644;2023-02-16T07:05:46;101690.13;;;4.09;nan
37694;BME280;23531;50.122;8.644;2023-02-16T07:07:48;101683.94;;;3.99;nan
37694;BME280;23531;50.122;8.644;2023-02-16T07:09:50;101680.88;;;3.94;nan
37694;BME280;23531;50.122;8.644;2023-02-16T07:11:51;101692.84;;;3.79;nan
37694;BME280;23531;50.122;8.644;2023-02-16T07:13:52;101675.13;;;3.49;nan
37694;BME280;23531;50.122;8.644;2023-02-16T07:15:54;101683.97;;;3.59;nan
37694;BME280;23531;50.122;8.644;2023-02-16T07:17:55;101687.72;;;3.56;nan
37694;BME280;23531;50.122;8.644;2023-02-16T07:19:56;101687.66;;;3.77;nan
37694;BME280;23531;50.122;8.644;2023-02-16T07:21:59;101688.22;;;3.41;nan
37694;BME280;23531;50.122;8.644;2023-02-16T07:24:00;101679.44;;;3.19;nan
37694;BME280;23531;50.122;8.644;2023-02-16T07:26:02;101676.56;;;3.32;nan
37694;BME280;23531;50.122;8.644;2023-02-16T07:28:04;101682.28;;;3.58;nan
37694;BME280;23531;50.122;8.644;2023-02-16T07:30:05;101685.75;;;3.49;nan
37694;BME280;23531;50.122;8.644;2023-02-16T07:32:07;101685.41;;;3.42;nan
37694;BME280;23531;50.122;8.644;2023-02-16T07:34:09;101685.69;;;3.39;nan
37694;BME280;23531;50.122;8.644;2023-02-16T07:36:10;101693.63;;;3.29;nan
37694;BME280;23531;50.122;8.644;2023-02-16T07:38:13;101701.44;;;2.80;nan
37694;BME280;23531;50.122;8.644;2023-02-16T07:40:14;101696.09;;;2.59;nan
37694;BME280;23531;50.122;8.644;2023-02-16T07:42:16;101704.34;;;2.77;nan
37694;BME280;23531;50.122;8.644;2023-02-16T07:44:17;101702.63;;;2.55;nan
37694;BME280;23531;50.122;8.644;2023-02-16T07:46:18;101707.25;;;2.42;nan
37694;BME280;23531;50.122;8.644;2023-02-16T07:48:19;101700.28;;;2.62;nan
37694;BME280;23531;50.122;8.644;2023-02-16T07:50:21;101698.09;;;2.67;nan
37694;BME280;23531;50.122;8.644;2023-02-16T07:52:22;101701.09;;;2.94;nan
37694;BME280;23531;50.122;8.644;2023-02-16T07:54:31;101706.75;;;3.01;nan
37694;BME280;23531;50.122;8.644;2023-02-16T07:56:32;101707.78;;;3.09;nan
37694;BME280;23531;50.122;8.644;2023-02-16T07:58:35;101708.50;;;3.42;nan
37694;BME280;23531;50.122;8.644;2023-02-16T08:00:36;101713.31;;;3.48;nan
37694;BME280;23531;50.122;8.644;2023-02-16T08:02:38;101712.84;;;2.91;nan
37694;BME280;23531;50.122;8.644;2023-02-16T08:04:40;101724.69;;;3.08;nan
37694;BME280;23531;50.122;8.644;2023-02-16T08:06:41;101715.25;;;3.46;nan
37694;BME280;23531;50.122;8.644;2023-02-16T08:08:43;101721.47;;;3.56;nan
37694;BME280;23531;50.122;8.644;2023-02-16T08:10:45;101725.88;;;3.15;nan
37694;BME280;23531;50.122;8.644;2023-02-16T08:12:47;101714.84;;;2.99;nan
37694;BME280;23531;50.122;8.644;2023-02-16T08:14:48;101715.09;;;3.38;nan
37694;BME280;23531;50.122;8.644;2023-02-16T08:16:50;101715.16;;;3.57;nan
37694;BME280;23531;50.122;8.644;2023-02-16T08:18:51;101717.53;;;3.29;nan
37694;BME280;23531;50.122;8.644;2023-02-16T08:20:53;101713.00;;;3.20;nan
37694;BME280;23531;50.122;8.644;2023-02-16T08:22:56;101711.22;;;2.79;nan
37694;BME280;23531;50.122;8.644;2023-02-16T08:24:58;101706.88;;;2.99;nan
37694;BME280;23531;50.122;8.644;2023-02-16T08:27:01;101709.59;;;3.09;nan
37694;BME280;23531;50.122;8.644;2023-02-16T08:29:02;101703.97;;;3.02;nan
37694;BME280;23531;50.122;8.644;2023-02-16T08:31:04;101700.88;;;3.07;nan
37694;BME280;23531;50.122;8.644;2023-02-16T08:33:06;101696.91;;;3.43;nan
37694;BME280;23531;50.122;8.644;2023-02-16T08:35:07;101700.41;;;3.43;nan
37694;BME280;23531;50.122;8.644;2023-02-16T08:37:09;101707.50;;;3.33;nan
37694;BME280;23531;50.122;8.644;2023-02-16T08:39:12;101704.72;;;3.35;nan
37694;BME280;23531;50.122;8.644;2023-02-16T08:41:13;101704.13;;;3.61;nan
37694;BME280;23531;50.122;8.644;2023-02-16T08:43:16;101706.50;;;3.64;nan
37694;BME280;23531;50.122;8.644;2023-02-16T08:45:17;101714.59;;;3.53;nan
37694;BME280;23531;50.122;8.644;2023-02-16T08:47:19;101718.41;;;3.09;nan
37694;BME280;23531;50.122;8.644;2023-02-16T08:49:21;101715.00;;;3.28;nan
37694;BME280;23531;50.122;8.644;2023-02-16T08:51:23;101710.53;;;3.28;nan
37694;BME280;23531;50.122;8.644;2023-02-16T08:53:24;101709.22;;;3.44;nan
37694;BME280;23531;50.122;8.644;2023-02-16T08:55:26;101721.00;;;3.51;nan
37694;BME280;23531;50.122;8.644;2023-02-16T08:57:28;101719.59;;;3.77;nan
37694;BME280;23531;50.122;8.644;2023-02-16T08:59:30;101720.03;;;3.82;nan
37694;BME280;23531;50.122;8.644;2023-02-16T09:01:33;101721.44;;;3.86;nan
37694;BME280;23531;50.122;8.644;2023-02-16T09:03:34;101720.06;;;3.92;nan
37694;BME280;23531;50.122;8.644;2023-02-16T09:05:38;101721.97;;;3.71;nan
37694;BME280;23531;50.122;8.644;2023-02-16T09:07:41;101727.63;;;3.96;nan
37694;BME280;23531;50.122;8.644;2023-02-16T09:09:42;101728.66;;;4.05;nan
37694;BME280;23531;50.122;8.644;2023-02-16T09:11:43;101734.28;;;4.12;nan
37694;BME280;23531;50.122;8.644;2023-02-16T09:13:45;101733.81;;;4.07;nan
37694;BME280;23531;50.122;8.644;2023-02-16T09:15:47;101732.44;;;4.12;nan
37694;BME280;23531;50.122;8.644;2023-02-16T09:17:49;101734.28;;;4.12;nan
37694;BME280;23531;50.122;8.644;2023-02-16T09:19:50;101732.69;;;3.99;nan
37694;BME280;23531;50.122;8.644;2023-02-16T09:21:51;101735.69;;;4.16;nan
37694;BME280;23531;50.122;8.644;2023-02-16T09:23:55;101735.50;;;4.08;nan
37694;BME280;23531;50.122;8.644;2023-02-16T09:25:58;101739.19;;;4.16;nan
37694;BME280;23531;50.122;8.644;2023-02-16T09:28:00;101743.13;;;4.22;nan
37694;BME280;23531;50.122;8.644;2023-02-16T09:30:02;101736.81;;;4.32;nan
37694;BME280;23531;50.122;8.644;2023-02-16T09:32:06;101737.59;;;3.94;nan
37694;BME280;23531;50.122;8.644;2023-02-16T09:34:11;101728.72;;;3.84;nan
37694;BME280;23531;50.122;8.644;2023-02-16T09:36:15;101728.72;;;3.84;nan
37694;BME280;23531;50.122;8.644;2023-02-16T09:38:17;101732.72;;;4.19;nan
37694;BME280;23531;50.122;8.644;2023-02-16T09:40:18;101725.34;;;4.32;nan
37694;BME280;23531;50.122;8.644;2023-02-16T09:42:24;101729.06;;;4.00;nan
37694;BME280;23531;50.122;8.644;2023-02-16T09:44:34;101732.44;;;4.03;nan
37694;BME280;23531;50.122;8.644;2023-02-16T09:46:38;101738.38;;;4.25;nan
37694;BME280;23531;50.122;8.644;2023-02-16T09:48:43;101742.53;;;4.18;nan
37694;BME280;23531;50.122;8.644;2023-02-16T09:50:46;101736.81;;;4.23;nan
37694;BME280;23531;50.122;8.644;2023-02-16T09:52:51;101746.47;;;4.14;nan
37694;BME280;23531;50.122;8.644;2023-02-16T09:54:54;101750.84;;;4.25;nan
37694;BME280;23531;50.122;8.644;2023-02-16T09:56:57;101747.00;;;4.18;nan
37694;BME280;23531;50.122;8.644;2023-02-16T09:59:02;101746.13;;;3.98;nan
37694;BME280;23531;50.122;8.644;2023-02-16T10:01:06;101734.41;;;4.10;nan
37694;BME280;23531;50.122;8.644;2023-02-16T10:03:15;101732.44;;;4.03;nan
37694;BME280;23531;50.122;8.644;2023-02-16T10:05:24;101732.19;;;4.25;nan
37694;BME280;23531;50.122;8.644;2023-02-16T10:07:28;101724.66;;;4.40;nan
37694;BME280;23531;50.122;8.644;2023-02-16T10:09:32;101726.91;;;4.44;nan
37694;BME280;23531;50.122;8.644;2023-02-16T10:11:34;101733.78;;;4.37;nan
37694;BME280;23531;50.122;8.644;2023-02-16T10:13:40;101736.13;;;4.30;nan
37694;BME280;23531;50.122;8.644;2023-02-16T10:15:46;101731.50;;;4.42;nan
37694;BME280;23531;50.122;8.644;2023-02-16T10:17:50;101736.72;;;4.53;nan
37694;BME280;23531;50.122;8.644;2023-02-16T10:19:54;101730.56;;;4.62;nan
37694;BME280;23531;50.122;8.644;2023-02-16T10:21:59;101732.81;;;4.57;nan
37694;BME280;23531;50.122;8.644;2023-02-16T10:24:03;101739.09;;;4.47;nan
37694;BME280;23531;50.122;8.644;2023-02-16T10:26:10;101741.50;;;4.59;nan
37694;BME280;23531;50.122;8.644;2023-02-16T10:28:15;101745.28;;;4.47;nan
37694;BME280;23531;50.122;8.644;2023-02-16T10:30:17;101739.81;;;4.58;nan
37694;BME280;23531;50.122;8.644;2023-02-16T10:32:22;101734.75;;;4.74;nan
37694;BME280;23531;50.122;8.644;2023-02-16T10:34:29;101737.59;;;4.73;nan
37694;BME280;23531;50.122;8.644;2023-02-16T10:36:39;101729.56;;;4.63;nan
37694;BME280;23531;50.122;8.644;2023-02-16T10:38:49;101734.34;;;4.69;nan
37694;BME280;23531;50.122;8.644;2023-02-16T10:40:55;101728.13;;;4.21;nan
37694;BME280;23531;50.122;8.644;2023-02-16T10:43:02;101729.34;;;4.07;nan
37694;BME280;23531;50.122;8.644;2023-02-16T10:45:10;101723.69;;;4.50;nan
37694;BME280;23531;50.122;8.644;2023-02-16T10:47:21;101718.63;;;4.47;nan
37694;BME280;23531;50.122;8.644;2023-02-16T10:49:27;101721.84;;;4.41;nan
37694;BME280;23531;50.122;8.644;2023-02-16T10:51:30;101718.38;;;4.50;nan
37694;BME280;23531;50.122;8.644;2023-02-16T10:53:34;101711.09;;;4.71;nan
37694;BME280;23531;50.122;8.644;2023-02-16T10:55:39;101701.66;;;4.87;nan
37694;BME280;23531;50.122;8.644;2023-02-16T10:57:40;101712.19;;;4.88;nan
37694;BME280;23531;50.122;8.644;2023-02-16T10:59:43;101697.16;;;5.06;nan
37694;BME280;23531;50.122;8.644;2023-02-16T11:01:45;101696.47;;;5.04;nan
37694;BME280;23531;50.122;8.644;2023-02-16T11:03:48;101702.19;;;5.19;nan
37694;BME280;23531;50.122;8.644;2023-02-16T11:05:51;101701.47;;;5.27;nan
37694;BME280;23531;50.122;8.644;2023-02-16T11:07:53;101691.22;;;5.22;nan
37694;BME280;23531;50.122;8.644;2023-02-16T11:09:57;101686.75;;;5.13;nan
37694;BME280;23531;50.122;8.644;2023-02-16T11:12:01;101676.34;;;5.29;nan
37694;BME280;23531;50.122;8.644;2023-02-16T11:14:03;101675.69;;;5.45;nan